createdAt,value
2018-03-03T00:01:11.290Z,90.60
2018-03-03T00:03:38.770Z,90.40
2018-03-03T00:06:07.043Z,88.90
2018-03-03T00:08:34.535Z,88.30
2018-03-03T00:11:02.024Z,88.00
2018-03-03T00:13:29.520Z,89.70
2018-03-03T00:15:57.771Z,88.60
2018-03-03T00:18:25.243Z,88.60
2018-03-03T00:20:52.741Z,90.10
2018-03-03T00:23:20.207Z,90.60
2018-03-03T00:25:47.693Z,90.50
2018-03-03T00:28:15.187Z,91.10
2018-03-03T00:30:43.441Z,91.00
2018-03-03T00:33:10.935Z,91.00
2018-03-03T00:35:38.424Z,91.60
2018-03-03T00:38:05.915Z,91.00
2018-03-03T00:40:33.388Z,91.30
2018-03-03T00:43:01.696Z,91.40
2018-03-03T00:45:29.184Z,91.40
2018-03-03T00:47:56.668Z,90.80
2018-03-03T00:50:24.898Z,89.60
2018-03-03T00:52:52.380Z,89.60
2018-03-03T00:55:19.889Z,90.50
2018-03-03T00:57:47.376Z,90.80
2018-03-03T01:00:14.891Z,90.80
2018-03-03T01:02:42.378Z,90.40
2018-03-03T01:05:09.884Z,90.90
2018-03-03T01:07:38.122Z,88.70
2018-03-03T01:10:05.617Z,88.70
2018-03-03T01:12:33.878Z,89.20
2018-03-03T01:15:02.156Z,90.00
2018-03-03T01:17:30.405Z,90.00
2018-03-03T01:19:57.892Z,90.00
2018-03-03T01:22:26.150Z,91.10
2018-03-03T01:24:53.691Z,91.10
2018-03-03T01:27:21.177Z,91.20
2018-03-03T01:29:49.454Z,91.60
2018-03-03T01:32:17.688Z,90.70
2018-03-03T01:34:45.195Z,90.60
2018-03-03T01:37:12.698Z,91.40
2018-03-03T01:39:40.186Z,91.60
2018-03-03T01:42:07.673Z,92.00
2018-03-03T01:44:35.191Z,91.90
2018-03-03T01:47:02.691Z,91.60
2018-03-03T01:49:30.167Z,91.80
2018-03-03T01:51:57.666Z,92.20
2018-03-03T01:54:25.143Z,92.20
2018-03-03T01:56:52.638Z,92.30
2018-03-03T01:59:20.133Z,91.50
2018-03-03T02:01:47.662Z,91.10
2018-03-03T02:04:15.155Z,92.00
2018-03-03T02:06:42.654Z,91.70
2018-03-03T02:09:10.133Z,91.10
2018-03-03T02:11:37.645Z,92.10
2018-03-03T02:14:05.168Z,91.70
2018-03-03T02:16:32.682Z,91.90
2018-03-03T02:19:00.169Z,91.40
2018-03-03T02:21:27.689Z,91.00
2018-03-03T02:23:55.166Z,90.70
2018-03-03T02:26:22.639Z,91.10
2018-03-03T02:28:50.136Z,91.60
2018-03-03T02:31:18.706Z,91.10
2018-03-03T02:33:46.956Z,90.90
2018-03-03T02:36:15.952Z,90.30
2018-03-03T02:38:43.451Z,90.20
2018-03-03T02:41:10.940Z,91.00
2018-03-03T02:43:38.433Z,91.70
2018-03-03T02:46:05.937Z,91.10
2018-03-03T02:48:33.436Z,90.90
2018-03-03T02:51:00.903Z,91.00
2018-03-03T02:53:28.395Z,90.90
2018-03-03T02:55:55.880Z,91.20
2018-03-03T02:58:23.375Z,92.00
2018-03-03T03:00:51.625Z,92.10
2018-03-03T03:03:19.145Z,92.10
2018-03-03T03:05:46.641Z,91.60
2018-03-03T03:08:14.127Z,91.40
2018-03-03T03:10:42.367Z,91.70
2018-03-03T03:13:09.852Z,91.70
2018-03-03T03:15:38.108Z,91.00
2018-03-03T03:18:05.582Z,91.00
2018-03-03T03:20:33.839Z,91.80
2018-03-03T03:23:01.319Z,91.70
2018-03-03T03:25:29.603Z,92.30
2018-03-03T03:27:57.091Z,92.30
2018-03-03T03:30:24.592Z,92.20
2018-03-03T03:32:52.075Z,92.00
2018-03-03T03:35:19.568Z,92.30
2018-03-03T03:37:47.058Z,92.40
2018-03-03T03:40:14.525Z,92.60
2018-03-03T03:42:42.784Z,91.50
2018-03-03T03:45:10.262Z,91.50
2018-03-03T03:47:38.497Z,92.00
2018-03-03T03:50:05.992Z,91.90
2018-03-03T03:52:34.255Z,91.90
2018-03-03T03:55:02.481Z,91.40
2018-03-03T03:57:29.977Z,91.40
2018-03-03T03:59:57.465Z,91.90
2018-03-03T04:02:24.947Z,92.30
2018-03-03T04:04:52.432Z,92.10
2018-03-03T04:07:19.923Z,91.00
2018-03-03T04:09:48.163Z,91.70
2018-03-03T04:12:15.648Z,91.70
2018-03-03T04:14:43.886Z,89.70
2018-03-03T04:17:11.367Z,89.70
2018-03-03T04:19:38.859Z,91.10
2018-03-03T04:22:06.360Z,90.20
2018-03-03T04:24:33.828Z,91.20
2018-03-03T04:27:01.336Z,91.70
2018-03-03T04:29:28.809Z,90.50
2018-03-03T04:31:56.307Z,91.30
2018-03-03T04:34:24.546Z,91.50
2018-03-03T04:36:52.025Z,91.50
2018-03-03T04:39:19.518Z,91.60
2018-03-03T04:41:46.992Z,91.40
2018-03-03T04:44:14.487Z,90.50
2018-03-03T04:46:41.956Z,90.70
2018-03-03T04:49:09.470Z,88.80
2018-03-03T04:51:36.924Z,87.70
2018-03-03T04:54:04.438Z,88.00
2018-03-03T04:56:32.671Z,88.80
2018-03-03T04:59:00.971Z,88.90
2018-03-03T05:01:28.436Z,90.20
2018-03-03T05:03:57.192Z,91.70
2018-03-03T05:06:42.466Z,91.40
2018-03-03T05:09:09.946Z,91.70
2018-03-03T05:11:37.414Z,90.80
2018-03-03T05:14:06.223Z,91.80
2018-03-03T05:19:58.337Z,91.40
2018-03-03T05:22:31.538Z,91.80
2018-03-03T05:25:05.560Z,91.70
2018-03-03T05:30:45.172Z,90.90
2018-03-03T05:33:18.372Z,89.10
2018-03-03T05:35:51.595Z,90.00
2018-03-03T05:38:25.653Z,91.20
2018-03-03T05:40:58.884Z,91.20
2018-03-03T05:43:32.776Z,91.60
2018-03-03T05:46:05.960Z,91.50
2018-03-03T05:51:38.876Z,91.60
2018-03-03T05:54:12.149Z,92.00
2018-03-03T05:59:47.800Z,88.80
2018-03-03T06:02:21.115Z,88.80
2018-03-03T06:05:09.399Z,89.40
2018-03-03T06:07:42.551Z,91.20
2018-03-03T06:10:14.542Z,91.00
2018-03-03T06:12:42.804Z,91.20
2018-03-03T06:15:11.079Z,91.70
2018-03-03T06:17:39.326Z,92.10
2018-03-03T06:20:06.833Z,91.90
2018-03-03T06:22:34.303Z,90.80
2018-03-03T06:25:01.801Z,90.00
2018-03-03T06:27:30.063Z,91.40
2018-03-03T06:29:58.419Z,91.40
2018-03-03T06:32:25.891Z,91.60
2018-03-03T06:34:53.377Z,91.20
2018-03-03T06:37:20.864Z,91.50
2018-03-03T06:39:48.346Z,90.50
2018-03-03T06:42:15.828Z,90.90
2018-03-03T06:44:43.309Z,91.10
2018-03-03T06:47:11.555Z,90.00
2018-03-03T06:49:39.047Z,89.90
2018-03-03T06:52:07.287Z,90.90
2018-03-03T06:54:34.771Z,90.90
2018-03-03T06:57:03.026Z,89.00
2018-03-03T06:59:30.509Z,88.80
2018-03-03T07:01:57.967Z,87.40
2018-03-03T07:04:26.207Z,91.00
2018-03-03T07:06:53.700Z,90.90
2018-03-03T07:09:22.034Z,91.80
2018-03-03T07:11:49.522Z,91.80
2018-03-03T07:17:15.465Z,90.20
2018-03-03T07:19:43.699Z,89.70
2018-03-03T07:22:11.194Z,89.70
2018-03-03T07:24:39.435Z,90.10
2018-03-03T07:27:06.916Z,89.70
2018-03-03T07:29:35.173Z,88.70
2018-03-03T07:32:02.697Z,88.70
2018-03-03T07:34:30.165Z,89.50
2018-03-03T07:36:57.651Z,90.70
2018-03-03T07:39:25.899Z,90.10
2018-03-03T07:41:53.403Z,90.30
2018-03-03T07:44:21.667Z,90.40
2018-03-03T07:46:49.145Z,90.40
2018-03-03T07:49:16.661Z,90.10
2018-03-03T07:51:45.032Z,90.30
2018-03-03T07:54:12.535Z,90.50
2018-03-03T07:56:50.846Z,88.40
2018-03-03T07:59:18.335Z,87.00
2018-03-03T08:01:45.804Z,90.10
2018-03-03T08:04:13.299Z,88.70
2018-03-03T08:06:41.564Z,88.20
2018-03-03T08:09:09.048Z,88.00
2018-03-03T08:11:36.539Z,89.70
2018-03-03T08:14:04.023Z,90.20
2018-03-03T08:16:31.489Z,88.30
2018-03-03T08:18:59.751Z,90.30
2018-03-03T08:21:27.287Z,90.10
2018-03-03T08:23:54.788Z,90.20
2018-03-03T08:26:23.033Z,89.00
2018-03-03T08:28:50.530Z,89.00
2018-03-03T08:31:18.031Z,87.60
2018-03-03T08:33:45.494Z,87.90
2018-03-03T08:36:12.985Z,80.90
2018-03-03T08:38:41.212Z,78.40
2018-03-03T08:41:08.704Z,78.40
2018-03-03T08:43:37.543Z,77.40
2018-03-03T08:46:05.036Z,77.20
2018-03-03T08:48:32.503Z,79.60
2018-03-03T08:51:00.006Z,78.90
2018-03-03T08:53:28.621Z,80.40
2018-03-03T08:55:56.136Z,83.90
2018-03-03T08:58:23.608Z,78.90
2018-03-03T09:00:51.093Z,82.90
2018-03-03T09:03:18.586Z,77.90
2018-03-03T09:05:46.847Z,78.60
2018-03-03T09:08:14.348Z,78.40
2018-03-03T09:10:41.836Z,80.90
2018-03-03T09:13:09.593Z,75.70
2018-03-03T09:15:37.070Z,78.70
2018-03-03T09:18:04.740Z,77.80
2018-03-03T09:20:33.089Z,75.20
2018-03-03T09:23:00.622Z,75.10
2018-03-03T09:25:28.164Z,80.10
2018-03-03T09:27:55.652Z,79.10
2018-03-03T09:30:23.164Z,78.40
2018-03-03T09:32:50.620Z,73.60
2018-03-03T09:35:18.122Z,73.30
2018-03-03T09:37:45.606Z,72.30
2018-03-03T09:40:13.079Z,73.90
2018-03-03T09:42:41.306Z,76.30
2018-03-03T09:45:08.819Z,76.30
2018-03-03T09:47:36.306Z,74.70
2018-03-03T09:50:03.806Z,69.90
2018-03-03T09:52:31.269Z,68.60
2018-03-03T09:54:59.530Z,68.90
2018-03-03T09:57:27.028Z,68.80
2018-03-03T09:59:54.502Z,66.30
2018-03-03T10:02:21.984Z,68.60
2018-03-03T10:04:49.471Z,67.00
2018-03-03T10:07:17.720Z,71.90
2018-03-03T10:09:45.206Z,71.90
2018-03-03T10:12:12.750Z,68.60
2018-03-03T10:14:41.048Z,72.90
2018-03-03T10:17:08.554Z,72.10
2018-03-03T10:19:36.034Z,70.00
2018-03-03T10:22:03.650Z,69.80
2018-03-03T10:24:31.130Z,72.50
2018-03-03T10:26:58.606Z,70.10
2018-03-03T10:29:26.141Z,69.90
2018-03-03T10:31:53.773Z,72.10
2018-03-03T10:34:21.279Z,69.50
2018-03-03T10:36:48.815Z,62.20
2018-03-03T10:39:16.295Z,59.40
2018-03-03T10:41:44.567Z,54.20
2018-03-03T10:44:12.034Z,54.00
2018-03-03T10:46:40.338Z,56.50
2018-03-03T10:49:07.802Z,56.10
2018-03-03T10:51:35.299Z,52.80
2018-03-03T10:54:02.888Z,51.00
2018-03-03T10:56:31.129Z,50.80
2018-03-03T10:58:58.631Z,50.80
2018-03-03T11:01:26.212Z,53.20
2018-03-03T11:03:53.696Z,49.70
2018-03-03T11:06:21.202Z,48.50
2018-03-03T11:08:48.691Z,50.90
2018-03-03T11:11:16.171Z,55.00
2018-03-03T11:13:43.702Z,51.20
2018-03-03T11:16:11.232Z,57.00
2018-03-03T11:18:38.722Z,54.50
2018-03-03T11:21:07.056Z,55.30
2018-03-03T11:23:34.527Z,56.50
2018-03-03T11:26:02.582Z,56.80
2018-03-03T11:28:30.818Z,55.10
2018-03-03T11:30:58.305Z,55.00
2018-03-03T11:33:26.559Z,53.50
2018-03-03T11:35:54.093Z,53.50
2018-03-03T11:38:21.565Z,57.30
2018-03-03T11:40:49.088Z,58.50
2018-03-03T11:43:16.567Z,55.40
2018-03-03T11:45:44.044Z,60.30
2018-03-03T11:48:11.599Z,58.00
2018-03-03T11:50:39.088Z,60.10
2018-03-03T11:53:06.566Z,57.50
2018-03-03T11:55:34.040Z,64.80
2018-03-03T11:58:01.582Z,58.20
2018-03-03T12:00:29.066Z,59.00
2018-03-03T12:02:57.310Z,63.90
2018-03-03T12:05:24.795Z,63.70
2018-03-03T12:07:52.287Z,62.10
2018-03-03T12:10:20.532Z,58.80
2018-03-03T12:12:48.014Z,58.80
2018-03-03T12:15:16.260Z,57.80
2018-03-03T12:17:43.775Z,57.80
2018-03-03T12:20:11.263Z,62.20
2018-03-03T12:22:38.747Z,57.20
2018-03-03T12:25:06.991Z,55.60
2018-03-03T12:27:34.480Z,55.00
2018-03-03T12:30:02.759Z,58.90
2018-03-03T12:32:31.819Z,56.30
2018-03-03T12:34:59.346Z,56.30
2018-03-03T12:37:26.865Z,57.30
2018-03-03T12:39:55.147Z,56.50
2018-03-03T12:42:23.391Z,59.70
2018-03-03T12:44:52.013Z,61.60
2018-03-03T12:47:19.501Z,61.60
2018-03-03T12:49:48.035Z,60.20
2018-03-03T12:52:16.317Z,56.60
2018-03-03T12:54:44.579Z,57.50
2018-03-03T12:57:12.842Z,56.80
2018-03-03T12:59:40.322Z,56.60
2018-03-03T13:02:08.592Z,59.90
2018-03-03T13:04:36.824Z,59.00
2018-03-03T13:07:04.317Z,59.10
2018-03-03T13:09:32.564Z,58.40
2018-03-03T13:12:00.255Z,58.30
2018-03-03T13:14:28.513Z,54.40
2018-03-03T13:16:55.978Z,54.40
2018-03-03T13:19:24.227Z,56.90
2018-03-03T13:21:51.746Z,56.90
2018-03-03T13:24:19.249Z,58.60
2018-03-03T13:26:46.754Z,55.50
2018-03-03T13:29:14.229Z,57.20
2018-03-03T13:31:41.720Z,57.40
2018-03-03T13:34:09.203Z,56.90
2018-03-03T13:36:38.255Z,55.60
2018-03-03T13:39:05.735Z,55.50
2018-03-03T13:41:33.277Z,56.20
2018-03-03T13:44:00.741Z,57.10
2018-03-03T13:46:28.234Z,55.90
2018-03-03T13:48:55.740Z,55.70
2018-03-03T13:51:24.112Z,55.60
2018-03-03T13:53:51.596Z,54.50
2018-03-03T13:56:19.712Z,55.40
2018-03-03T13:58:47.227Z,56.30
2018-03-03T14:01:14.692Z,54.70
2018-03-03T14:03:42.960Z,55.20
2018-03-03T14:06:11.420Z,56.40
2018-03-03T14:08:38.897Z,56.10
2018-03-03T14:11:07.174Z,55.30
2018-03-03T14:13:35.426Z,56.00
2018-03-03T14:16:02.958Z,56.00
2018-03-03T14:18:30.460Z,56.40
2018-03-03T14:20:58.745Z,55.40
2018-03-03T14:23:26.987Z,54.30
2018-03-03T14:25:54.472Z,54.20
2018-03-03T14:28:22.751Z,55.40
2018-03-03T14:30:51.032Z,55.30
2018-03-03T14:33:18.544Z,55.30
2018-03-03T14:35:46.170Z,54.70
2018-03-03T14:38:13.666Z,54.50
2018-03-03T14:40:41.174Z,54.80
2018-03-03T14:43:08.739Z,55.70
2018-03-03T14:45:36.258Z,56.00
2018-03-03T14:48:04.534Z,56.50
2018-03-03T14:50:32.786Z,55.60
2018-03-03T14:53:00.283Z,55.50
2018-03-03T14:55:27.756Z,55.20
2018-03-03T14:57:55.213Z,55.20
2018-03-03T15:00:23.094Z,54.80
2018-03-03T15:02:50.559Z,55.00
2018-03-03T15:05:18.052Z,54.90
2018-03-03T15:07:46.305Z,55.40
2018-03-03T15:10:13.806Z,55.40
2018-03-03T15:12:41.291Z,54.90
2018-03-03T15:15:08.756Z,55.60
2018-03-03T15:17:36.234Z,55.00
2018-03-03T15:20:03.707Z,55.60
2018-03-03T15:22:32.015Z,56.00
2018-03-03T15:24:59.468Z,56.00
2018-03-03T15:27:26.950Z,56.50
2018-03-03T15:29:54.486Z,56.80
2018-03-03T15:32:22.076Z,56.50
2018-03-03T15:47:54.591Z,56.80
2018-03-03T15:50:22.122Z,59.40
2018-03-03T15:52:50.375Z,60.60
2018-03-03T15:55:17.853Z,60.60
2018-03-03T15:57:46.079Z,60.20
2018-03-03T16:00:13.594Z,60.20
2018-03-03T16:02:41.087Z,60.20
2018-03-03T16:05:09.386Z,60.50
2018-03-03T16:07:36.915Z,61.10
2018-03-03T16:10:04.419Z,60.30
2018-03-03T16:12:31.898Z,60.30
2018-03-03T16:14:59.376Z,61.10
2018-03-03T16:17:26.945Z,61.10
2018-03-03T16:19:55.238Z,60.80
2018-03-03T16:22:22.788Z,61.20
2018-03-03T16:24:51.599Z,61.50
2018-03-03T16:27:19.254Z,61.70
2018-03-03T16:29:46.734Z,61.90
2018-03-03T16:32:15.739Z,63.30
2018-03-03T16:34:43.216Z,63.30
2018-03-03T16:37:10.679Z,63.00
2018-03-03T16:39:38.200Z,62.90
2018-03-03T16:42:07.242Z,63.90
2018-03-03T16:44:34.722Z,63.90
2018-03-03T16:47:02.208Z,64.30
2018-03-03T16:49:29.692Z,64.60
2018-03-03T16:51:57.178Z,64.60
2018-03-03T16:54:24.645Z,64.90
2018-03-03T16:56:52.168Z,65.60
2018-03-03T16:59:19.645Z,65.60
2018-03-03T17:01:47.114Z,65.60
2018-03-03T17:04:14.610Z,66.20
2018-03-03T17:06:42.092Z,66.70
2018-03-03T17:09:10.104Z,66.90
2018-03-03T17:11:37.828Z,66.90
2018-03-03T17:14:06.848Z,66.50
2018-03-03T17:16:34.947Z,67.50
2018-03-03T17:19:04.055Z,68.20
2018-03-03T17:21:31.831Z,68.20
2018-03-03T17:24:00.790Z,69.00
2018-03-03T17:26:29.034Z,69.40
2018-03-03T17:28:56.522Z,69.30
2018-03-03T17:31:24.748Z,70.00
2018-03-03T17:33:53.191Z,70.00
2018-03-03T17:36:20.667Z,70.30
2018-03-03T17:38:54.690Z,70.40
2018-03-03T17:41:22.157Z,70.70
2018-03-03T17:43:50.641Z,71.10
2018-03-03T17:46:18.117Z,71.60
2018-03-03T17:48:45.621Z,71.90
2018-03-03T17:51:13.943Z,71.70
2018-03-03T17:53:43.475Z,72.10
2018-03-03T17:56:12.169Z,72.60
2018-03-03T17:58:40.471Z,72.30
2018-03-03T18:01:07.958Z,72.90
2018-03-03T18:03:36.081Z,72.90
2018-03-03T18:06:03.561Z,73.40
2018-03-03T18:08:31.037Z,73.80
2018-03-03T18:11:00.460Z,74.80
2018-03-03T18:13:28.715Z,74.80
2018-03-03T18:15:56.200Z,74.80
2018-03-03T18:18:24.431Z,75.30
2018-03-03T18:20:52.375Z,75.30
2018-03-03T18:23:20.242Z,75.50
2018-03-03T18:25:48.092Z,75.60
2018-03-03T18:28:16.974Z,75.80
2018-03-03T18:30:44.471Z,75.80
2018-03-03T18:33:13.736Z,75.80
2018-03-03T18:35:41.199Z,76.10
2018-03-03T18:38:10.187Z,76.10
2018-03-03T18:40:38.688Z,76.20
2018-03-03T18:43:06.174Z,76.30
2018-03-03T18:45:35.647Z,76.20
2018-03-03T18:48:03.912Z,76.50
2018-03-03T18:50:31.382Z,76.20
2018-03-03T18:52:59.652Z,76.50
2018-03-03T18:55:27.127Z,76.70
2018-03-03T18:57:56.118Z,76.80
2018-03-03T19:00:23.949Z,76.60
2018-03-03T19:12:38.272Z,76.60
2018-03-03T19:15:05.929Z,78.50
2018-03-03T19:17:36.071Z,78.80
2018-03-03T19:20:03.543Z,79.00
2018-03-03T19:22:31.795Z,79.00
2018-03-03T19:24:59.310Z,79.00
2018-03-03T19:27:28.306Z,79.50
2018-03-03T19:29:55.791Z,78.60
2018-03-03T19:32:23.438Z,78.50
2018-03-03T19:34:51.301Z,78.50
2018-03-03T19:37:19.832Z,78.30
2018-03-03T19:39:49.624Z,78.80
2018-03-03T19:42:17.117Z,78.80
2018-03-03T19:44:44.607Z,79.00
2018-03-03T19:47:12.147Z,79.10
2018-03-03T19:49:39.613Z,79.30
2018-03-03T19:52:07.105Z,79.30
2018-03-03T19:54:35.571Z,79.60
2018-03-03T19:57:03.070Z,79.60
2018-03-03T19:59:31.320Z,79.60
2018-03-03T20:01:58.828Z,79.50
2018-03-03T20:04:26.443Z,79.50
2018-03-03T20:06:56.979Z,79.60
2018-03-03T20:09:25.968Z,79.80
2018-03-03T20:11:53.446Z,79.80
2018-03-03T20:14:22.201Z,79.70
2018-03-03T20:16:50.143Z,79.70
2018-03-03T20:19:17.683Z,79.80
2018-03-03T20:21:45.191Z,80.00
2018-03-03T20:24:13.445Z,80.10
2018-03-03T20:26:40.948Z,80.10
2018-03-03T20:29:08.483Z,80.20
2018-03-03T20:31:36.895Z,80.60
2018-03-03T20:34:05.579Z,80.60
2018-03-03T20:36:33.186Z,80.70
2018-03-03T20:41:55.190Z,81.00
2018-03-03T20:44:23.440Z,80.90
2018-03-03T20:46:50.983Z,80.80
2018-03-03T20:49:19.340Z,81.10
2018-03-03T20:51:46.830Z,81.40
2018-03-03T20:54:14.354Z,81.40
2018-03-03T20:56:41.843Z,81.10
2018-03-03T20:59:10.220Z,81.00
2018-03-03T21:01:37.690Z,81.10
2018-03-03T21:04:05.996Z,80.80
2018-03-03T21:06:33.492Z,80.80
2018-03-03T21:09:00.995Z,81.00
2018-03-03T21:11:31.919Z,80.80
2018-03-03T21:14:00.175Z,80.90
2018-03-03T21:16:27.690Z,80.90
2018-03-03T21:18:55.174Z,81.00
2018-03-03T21:21:22.658Z,81.00
2018-03-03T21:23:50.903Z,81.00
2018-03-03T21:26:18.391Z,81.00
2018-03-03T21:28:46.674Z,81.10
2018-03-03T21:31:14.983Z,81.00
2018-03-03T21:33:42.496Z,80.90
2018-03-03T21:36:10.793Z,81.10
2018-03-03T21:38:38.272Z,81.00
2018-03-03T21:41:05.760Z,81.20
2018-03-03T21:43:33.229Z,81.00
2018-03-03T21:46:00.719Z,81.00
2018-03-03T21:48:29.015Z,81.10
2018-03-03T21:50:56.502Z,81.10
2018-03-03T21:53:23.993Z,81.00
2018-03-03T21:55:52.262Z,81.30
2018-03-03T21:58:20.534Z,81.40
2018-03-03T22:00:48.955Z,81.40
2018-03-03T22:03:19.772Z,81.50
2018-03-03T22:05:48.212Z,81.60
2018-03-03T22:08:15.702Z,81.60
2018-03-03T22:10:43.963Z,81.60
2018-03-03T22:13:12.241Z,81.40
2018-03-03T22:15:41.192Z,81.30
2018-03-03T22:18:09.467Z,81.30
2018-03-03T22:20:37.322Z,81.50
2018-03-03T22:23:04.828Z,81.60
2018-03-03T22:25:33.096Z,81.80
2018-03-03T22:28:01.345Z,81.60
2018-03-03T22:30:28.836Z,81.60
2018-03-03T22:32:57.153Z,81.20
2018-03-03T22:35:24.633Z,81.20
2018-03-03T22:37:52.136Z,81.00
2018-03-03T22:40:19.615Z,80.80
2018-03-03T22:42:47.110Z,80.60
2018-03-03T22:45:15.380Z,80.00
2018-03-03T22:47:43.609Z,79.60
2018-03-03T22:50:11.153Z,79.70
2018-03-03T22:52:38.617Z,79.10
2018-03-03T22:55:06.774Z,79.20
2018-03-03T22:57:36.323Z,78.90
2018-03-03T23:00:04.457Z,78.60
2018-03-03T23:02:33.312Z,78.50
2018-03-03T23:05:00.827Z,78.20
2018-03-03T23:07:28.314Z,78.80
2018-03-03T23:09:55.810Z,78.20
2018-03-03T23:12:26.072Z,78.00
2018-03-03T23:14:53.558Z,78.00
2018-03-03T23:17:23.059Z,78.00
2018-03-03T23:19:50.553Z,77.90
2018-03-03T23:22:22.724Z,77.70
2018-03-03T23:24:50.210Z,77.50
2018-03-03T23:27:17.710Z,77.40
2018-03-03T23:29:45.958Z,77.30
2018-03-03T23:32:13.451Z,77.20
2018-03-03T23:34:41.684Z,77.30
2018-03-03T23:37:09.183Z,77.20
2018-03-03T23:39:36.664Z,76.90
2018-03-03T23:42:04.144Z,76.70
2018-03-03T23:44:31.619Z,77.50
2018-03-03T23:46:59.122Z,76.70
2018-03-03T23:49:26.584Z,77.10
2018-03-03T23:51:54.073Z,77.30
2018-03-03T23:54:21.578Z,76.90
2018-03-03T23:56:50.532Z,77.10
2018-03-03T23:59:18.016Z,77.10
